sensor_id;sensor_type;location;lat;lon;timestamp;P1;durP1;ratioP1;P2;durP2;ratioP2
57101;SDS011;42982;54.558;18.508;2022-09-21T00:00:22;4.93;;;1.00;;
57101;SDS011;42982;54.558;18.508;2022-09-21T00:01:26;2.67;;;0.80;;
57101;SDS011;42982;54.558;18.508;2022-09-21T00:02:31;5.32;;;1.02;;
57101;SDS011;42982;54.558;18.508;2022-09-21T00:03:40;0.88;;;0.70;;
57101;SDS011;42982;54.558;18.508;2022-09-21T00:04:42;3.08;;;0.88;;
57101;SDS011;42982;54.558;18.508;2022-09-21T00:05:51;3.95;;;0.85;;
57101;SDS011;42982;54.558;18.508;2022-09-21T00:07:04;3.58;;;1.25;;
57101;SDS011;42982;54.558;18.508;2022-09-21T00:08:06;1.63;;;0.80;;
57101;SDS011;42982;54.558;18.508;2022-09-21T00:09:11;1.88;;;0.75;;
57101;SDS011;42982;54.558;18.508;2022-09-21T00:10:20;3.40;;;1.00;;
57101;SDS011;42982;54.558;18.508;2022-09-21T00:11:28;3.67;;;0.82;;
57101;SDS011;42982;54.558;18.508;2022-09-21T00:12:32;2.95;;;0.80;;
57101;SDS011;42982;54.558;18.508;2022-09-21T00:13:38;2.78;;;0.88;;
57101;SDS011;42982;54.558;18.508;2022-09-21T00:14:41;3.85;;;1.27;;
57101;SDS011;42982;54.558;18.508;2022-09-21T00:15:43;3.35;;;0.90;;
57101;SDS011;42982;54.558;18.508;2022-09-21T00:16:51;2.08;;;0.90;;
57101;SDS011;42982;54.558;18.508;2022-09-21T00:17:57;3.67;;;0.77;;
57101;SDS011;42982;54.558;18.508;2022-09-21T00:19:06;1.33;;;0.90;;
57101;SDS011;42982;54.558;18.508;2022-09-21T00:20:13;1.25;;;0.60;;
57101;SDS011;42982;54.558;18.508;2022-09-21T00:21:20;2.42;;;0.88;;
57101;SDS011;42982;54.558;18.508;2022-09-21T00:22:33;1.48;;;0.70;;
57101;SDS011;42982;54.558;18.508;2022-09-21T00:23:37;4.00;;;0.88;;
57101;SDS011;42982;54.558;18.508;2022-09-21T00:24:40;4.65;;;0.93;;
57101;SDS011;42982;54.558;18.508;2022-09-21T00:25:47;1.88;;;0.85;;
57101;SDS011;42982;54.558;18.508;2022-09-21T00:26:53;1.67;;;0.88;;
57101;SDS011;42982;54.558;18.508;2022-09-21T00:27:55;5.65;;;1.50;;
57101;SDS011;42982;54.558;18.508;2022-09-21T00:28:58;7.05;;;0.90;;
57101;SDS011;42982;54.558;18.508;2022-09-21T00:30:03;3.63;;;0.90;;
57101;SDS011;42982;54.558;18.508;2022-09-21T00:31:10;2.00;;;0.90;;
57101;SDS011;42982;54.558;18.508;2022-09-21T00:32:17;4.10;;;0.80;;
57101;SDS011;42982;54.558;18.508;2022-09-21T00:33:23;2.40;;;0.90;;
57101;SDS011;42982;54.558;18.508;2022-09-21T00:34:30;2.92;;;0.95;;
57101;SDS011;42982;54.558;18.508;2022-09-21T00:35:36;3.28;;;0.90;;
57101;SDS011;42982;54.558;18.508;2022-09-21T00:36:41;3.40;;;0.80;;
57101;SDS011;42982;54.558;18.508;2022-09-21T00:37:45;3.25;;;1.00;;
57101;SDS011;42982;54.558;18.508;2022-09-21T00:38:54;2.63;;;1.00;;
57101;SDS011;42982;54.558;18.508;2022-09-21T00:40:01;1.27;;;0.77;;
57101;SDS011;42982;54.558;18.508;2022-09-21T00:41:04;3.40;;;0.70;;
57101;SDS011;42982;54.558;18.508;2022-09-21T00:42:09;4.63;;;0.75;;
57101;SDS011;42982;54.558;18.508;2022-09-21T00:43:23;3.92;;;1.00;;
57101;SDS011;42982;54.558;18.508;2022-09-21T00:44:29;4.35;;;1.00;;
57101;SDS011;42982;54.558;18.508;2022-09-21T00:45:33;3.10;;;0.70;;
57101;SDS011;42982;54.558;18.508;2022-09-21T00:46:36;4.05;;;1.10;;
57101;SDS011;42982;54.558;18.508;2022-09-21T00:47:44;2.60;;;1.17;;
57101;SDS011;42982;54.558;18.508;2022-09-21T00:48:46;1.52;;;0.80;;
57101;SDS011;42982;54.558;18.508;2022-09-21T00:49:50;1.40;;;0.93;;
57101;SDS011;42982;54.558;18.508;2022-09-21T00:51:00;4.03;;;1.10;;
57101;SDS011;42982;54.558;18.508;2022-09-21T00:52:05;4.30;;;0.98;;
57101;SDS011;42982;54.558;18.508;2022-09-21T00:53:10;2.63;;;0.80;;
57101;SDS011;42982;54.558;18.508;2022-09-21T00:54:18;2.03;;;0.90;;
57101;SDS011;42982;54.558;18.508;2022-09-21T00:55:28;5.13;;;1.23;;
57101;SDS011;42982;54.558;18.508;2022-09-21T00:56:34;2.65;;;0.70;;
57101;SDS011;42982;54.558;18.508;2022-09-21T00:57:42;4.07;;;1.02;;
57101;SDS011;42982;54.558;18.508;2022-09-21T00:58:51;1.98;;;0.95;;
57101;SDS011;42982;54.558;18.508;2022-09-21T01:00:05;3.00;;;0.82;;
57101;SDS011;42982;54.558;18.508;2022-09-21T01:01:15;3.15;;;1.08;;
57101;SDS011;42982;54.558;18.508;2022-09-21T01:02:20;3.60;;;1.00;;
57101;SDS011;42982;54.558;18.508;2022-09-21T01:03:22;2.65;;;0.80;;
57101;SDS011;42982;54.558;18.508;2022-09-21T01:04:24;0.75;;;0.60;;
57101;SDS011;42982;54.558;18.508;2022-09-21T01:05:28;2.35;;;0.75;;
57101;SDS011;42982;54.558;18.508;2022-09-21T01:06:30;3.53;;;1.10;;
57101;SDS011;42982;54.558;18.508;2022-09-21T01:07:40;4.72;;;0.80;;
57101;SDS011;42982;54.558;18.508;2022-09-21T01:08:52;2.35;;;0.70;;
57101;SDS011;42982;54.558;18.508;2022-09-21T01:10:00;0.98;;;0.60;;
57101;SDS011;42982;54.558;18.508;2022-09-21T01:25:13;1.85;;;0.80;;
57101;SDS011;42982;54.558;18.508;2022-09-21T01:29:32;1.58;;;0.68;;
57101;SDS011;42982;54.558;18.508;2022-09-21T01:30:44;1.50;;;0.70;;
57101;SDS011;42982;54.558;18.508;2022-09-21T01:34:37;2.72;;;1.10;;
57101;SDS011;42982;54.558;18.508;2022-09-21T01:35:44;2.65;;;1.00;;
57101;SDS011;42982;54.558;18.508;2022-09-21T01:36:49;3.72;;;0.80;;
57101;SDS011;42982;54.558;18.508;2022-09-21T01:38:02;1.15;;;0.52;;
57101;SDS011;42982;54.558;18.508;2022-09-21T01:39:13;2.28;;;0.70;;
57101;SDS011;42982;54.558;18.508;2022-09-21T01:40:24;4.05;;;0.70;;
57101;SDS011;42982;54.558;18.508;2022-09-21T01:41:31;2.30;;;0.70;;
57101;SDS011;42982;54.558;18.508;2022-09-21T01:42:37;2.15;;;0.60;;
57101;SDS011;42982;54.558;18.508;2022-09-21T01:43:41;1.92;;;0.70;;
57101;SDS011;42982;54.558;18.508;2022-09-21T01:44:52;3.75;;;1.00;;
57101;SDS011;42982;54.558;18.508;2022-09-21T01:46:00;3.05;;;0.52;;
57101;SDS011;42982;54.558;18.508;2022-09-21T01:47:06;4.45;;;0.70;;
57101;SDS011;42982;54.558;18.508;2022-09-21T01:48:12;2.38;;;0.77;;
57101;SDS011;42982;54.558;18.508;2022-09-21T01:49:37;4.00;;;0.70;;
57101;SDS011;42982;54.558;18.508;2022-09-21T01:50:51;2.08;;;0.47;;
57101;SDS011;42982;54.558;18.508;2022-09-21T01:52:03;1.77;;;0.60;;
57101;SDS011;42982;54.558;18.508;2022-09-21T01:53:20;3.22;;;0.55;;
57101;SDS011;42982;54.558;18.508;2022-09-21T01:54:36;1.98;;;0.70;;
57101;SDS011;42982;54.558;18.508;2022-09-21T01:55:43;2.72;;;0.70;;
57101;SDS011;42982;54.558;18.508;2022-09-21T01:57:04;1.75;;;0.52;;
57101;SDS011;42982;54.558;18.508;2022-09-21T01:58:35;4.45;;;0.60;;
57101;SDS011;42982;54.558;18.508;2022-09-21T01:59:45;0.65;;;0.47;;
57101;SDS011;42982;54.558;18.508;2022-09-21T02:00:52;1.35;;;0.50;;
57101;SDS011;42982;54.558;18.508;2022-09-21T02:02:02;3.70;;;0.88;;
57101;SDS011;42982;54.558;18.508;2022-09-21T02:03:15;1.13;;;0.57;;
57101;SDS011;42982;54.558;18.508;2022-09-21T02:04:21;2.17;;;0.60;;
57101;SDS011;42982;54.558;18.508;2022-09-21T02:05:27;2.05;;;0.85;;
57101;SDS011;42982;54.558;18.508;2022-09-21T02:06:39;1.13;;;0.40;;
57101;SDS011;42982;54.558;18.508;2022-09-21T02:07:46;1.17;;;0.50;;
57101;SDS011;42982;54.558;18.508;2022-09-21T02:08:51;1.73;;;0.52;;
57101;SDS011;42982;54.558;18.508;2022-09-21T02:09:58;2.15;;;0.70;;
57101;SDS011;42982;54.558;18.508;2022-09-21T02:11:05;2.17;;;0.70;;
57101;SDS011;42982;54.558;18.508;2022-09-21T02:12:06;2.13;;;0.70;;
57101;SDS011;42982;54.558;18.508;2022-09-21T02:13:11;0.57;;;0.45;;
57101;SDS011;42982;54.558;18.508;2022-09-21T02:14:20;1.58;;;0.60;;
57101;SDS011;42982;54.558;18.508;2022-09-21T02:15:25;1.10;;;0.90;;
57101;SDS011;42982;54.558;18.508;2022-09-21T02:16:33;4.07;;;0.82;;
57101;SDS011;42982;54.558;18.508;2022-09-21T02:17:47;6.35;;;0.90;;
57101;SDS011;42982;54.558;18.508;2022-09-21T02:20:22;1.58;;;0.88;;
57101;SDS011;42982;54.558;18.508;2022-09-21T02:22:01;3.42;;;1.00;;
57101;SDS011;42982;54.558;18.508;2022-09-21T02:23:18;4.28;;;1.90;;
57101;SDS011;42982;54.558;18.508;2022-09-21T02:27:04;2.22;;;1.00;;
57101;SDS011;42982;54.558;18.508;2022-09-21T02:30:56;1.75;;;1.02;;
57101;SDS011;42982;54.558;18.508;2022-09-21T02:32:11;4.15;;;1.20;;
57101;SDS011;42982;54.558;18.508;2022-09-21T02:35:14;1.98;;;1.00;;
57101;SDS011;42982;54.558;18.508;2022-09-21T02:36:28;3.78;;;1.25;;
57101;SDS011;42982;54.558;18.508;2022-09-21T02:37:44;7.78;;;1.27;;
57101;SDS011;42982;54.558;18.508;2022-09-21T02:38:52;2.97;;;1.20;;
57101;SDS011;42982;54.558;18.508;2022-09-21T02:41:16;2.60;;;1.40;;
57101;SDS011;42982;54.558;18.508;2022-09-21T02:42:31;2.72;;;1.00;;
57101;SDS011;42982;54.558;18.508;2022-09-21T02:45:03;2.72;;;1.02;;
57101;SDS011;42982;54.558;18.508;2022-09-21T02:46:18;1.48;;;0.95;;
57101;SDS011;42982;54.558;18.508;2022-09-21T02:47:30;3.85;;;1.20;;
57101;SDS011;42982;54.558;18.508;2022-09-21T02:49:53;3.10;;;0.88;;
57101;SDS011;42982;54.558;18.508;2022-09-21T02:51:08;0.80;;;0.70;;
57101;SDS011;42982;54.558;18.508;2022-09-21T02:52:16;3.20;;;0.80;;
57101;SDS011;42982;54.558;18.508;2022-09-21T02:53:22;1.88;;;0.70;;
57101;SDS011;42982;54.558;18.508;2022-09-21T02:54:26;1.40;;;0.80;;
57101;SDS011;42982;54.558;18.508;2022-09-21T02:55:35;2.22;;;1.00;;
57101;SDS011;42982;54.558;18.508;2022-09-21T02:56:42;1.85;;;0.70;;
57101;SDS011;42982;54.558;18.508;2022-09-21T02:57:48;2.28;;;0.80;;
57101;SDS011;42982;54.558;18.508;2022-09-21T02:58:56;4.10;;;0.80;;
57101;SDS011;42982;54.558;18.508;2022-09-21T03:00:11;1.70;;;1.00;;
57101;SDS011;42982;54.558;18.508;2022-09-21T03:01:17;4.00;;;0.63;;
57101;SDS011;42982;54.558;18.508;2022-09-21T03:02:22;1.63;;;0.90;;
57101;SDS011;42982;54.558;18.508;2022-09-21T03:03:26;2.13;;;0.90;;
57101;SDS011;42982;54.558;18.508;2022-09-21T03:04:32;1.00;;;0.60;;
57101;SDS011;42982;54.558;18.508;2022-09-21T03:05:34;1.77;;;0.70;;
57101;SDS011;42982;54.558;18.508;2022-09-21T03:06:36;1.67;;;0.60;;
57101;SDS011;42982;54.558;18.508;2022-09-21T03:07:40;2.10;;;0.68;;
57101;SDS011;42982;54.558;18.508;2022-09-21T03:08:45;1.23;;;0.90;;
57101;SDS011;42982;54.558;18.508;2022-09-21T03:09:47;2.30;;;0.63;;
57101;SDS011;42982;54.558;18.508;2022-09-21T03:10:49;1.75;;;0.50;;
57101;SDS011;42982;54.558;18.508;2022-09-21T03:12:00;1.47;;;0.67;;
57101;SDS011;42982;54.558;18.508;2022-09-21T03:13:07;2.65;;;0.52;;
57101;SDS011;42982;54.558;18.508;2022-09-21T03:14:09;2.45;;;0.57;;
57101;SDS011;42982;54.558;18.508;2022-09-21T03:15:17;1.90;;;0.55;;
57101;SDS011;42982;54.558;18.508;2022-09-21T03:16:21;4.38;;;0.73;;
57101;SDS011;42982;54.558;18.508;2022-09-21T03:17:24;0.73;;;0.45;;
57101;SDS011;42982;54.558;18.508;2022-09-21T03:18:28;1.92;;;0.40;;
57101;SDS011;42982;54.558;18.508;2022-09-21T03:19:33;1.52;;;0.50;;
57101;SDS011;42982;54.558;18.508;2022-09-21T03:20:38;5.18;;;0.80;;
57101;SDS011;42982;54.558;18.508;2022-09-21T03:21:40;1.88;;;0.82;;
57101;SDS011;42982;54.558;18.508;2022-09-21T03:22:51;1.17;;;0.60;;
57101;SDS011;42982;54.558;18.508;2022-09-21T03:23:53;0.80;;;0.60;;
57101;SDS011;42982;54.558;18.508;2022-09-21T03:24:56;2.35;;;0.77;;
57101;SDS011;42982;54.558;18.508;2022-09-21T03:26:00;1.10;;;0.40;;
57101;SDS011;42982;54.558;18.508;2022-09-21T03:27:05;2.88;;;0.60;;
57101;SDS011;42982;54.558;18.508;2022-09-21T03:28:12;2.33;;;0.70;;
57101;SDS011;42982;54.558;18.508;2022-09-21T03:29:15;4.18;;;1.05;;
57101;SDS011;42982;54.558;18.508;2022-09-21T03:30:20;1.73;;;0.45;;
57101;SDS011;42982;54.558;18.508;2022-09-21T03:31:34;1.05;;;0.60;;
57101;SDS011;42982;54.558;18.508;2022-09-21T03:32:38;0.77;;;0.50;;
57101;SDS011;42982;54.558;18.508;2022-09-21T03:33:43;0.68;;;0.47;;
57101;SDS011;42982;54.558;18.508;2022-09-21T03:34:50;2.13;;;0.70;;
57101;SDS011;42982;54.558;18.508;2022-09-21T03:35:56;0.93;;;0.63;;
57101;SDS011;42982;54.558;18.508;2022-09-21T03:38:08;0.80;;;0.40;;
57101;SDS011;42982;54.558;18.508;2022-09-21T03:39:12;4.72;;;1.08;;
57101;SDS011;42982;54.558;18.508;2022-09-21T03:40:17;2.80;;;0.80;;
57101;SDS011;42982;54.558;18.508;2022-09-21T03:41:19;1.73;;;0.50;;
57101;SDS011;42982;54.558;18.508;2022-09-21T03:42:25;1.17;;;0.63;;
57101;SDS011;42982;54.558;18.508;2022-09-21T03:43:27;2.40;;;0.50;;
57101;SDS011;42982;54.558;18.508;2022-09-21T03:44:31;2.67;;;0.60;;
57101;SDS011;42982;54.558;18.508;2022-09-21T03:45:43;1.05;;;0.55;;
57101;SDS011;42982;54.558;18.508;2022-09-21T03:46:51;2.95;;;0.70;;
57101;SDS011;42982;54.558;18.508;2022-09-21T03:48:02;0.93;;;0.40;;
57101;SDS011;42982;54.558;18.508;2022-09-21T03:49:07;3.22;;;0.77;;
57101;SDS011;42982;54.558;18.508;2022-09-21T03:50:13;1.20;;;0.60;;
57101;SDS011;42982;54.558;18.508;2022-09-21T03:51:18;1.73;;;0.63;;
57101;SDS011;42982;54.558;18.508;2022-09-21T03:52:24;2.75;;;0.63;;
57101;SDS011;42982;54.558;18.508;2022-09-21T03:53:26;3.80;;;0.70;;
57101;SDS011;42982;54.558;18.508;2022-09-21T03:54:33;1.95;;;1.05;;
57101;SDS011;42982;54.558;18.508;2022-09-21T03:55:35;1.08;;;0.70;;
57101;SDS011;42982;54.558;18.508;2022-09-21T03:56:38;1.33;;;0.90;;
57101;SDS011;42982;54.558;18.508;2022-09-21T03:57:42;2.15;;;0.73;;
57101;SDS011;42982;54.558;18.508;2022-09-21T03:58:47;5.40;;;0.95;;
57101;SDS011;42982;54.558;18.508;2022-09-21T03:59:49;1.42;;;0.90;;
57101;SDS011;42982;54.558;18.508;2022-09-21T04:00:59;3.30;;;0.90;;
57101;SDS011;42982;54.558;18.508;2022-09-21T04:02:04;7.70;;;1.20;;
57101;SDS011;42982;54.558;18.508;2022-09-21T04:03:09;2.33;;;0.90;;
57101;SDS011;42982;54.558;18.508;2022-09-21T04:04:13;2.65;;;0.90;;
57101;SDS011;42982;54.558;18.508;2022-09-21T04:05:20;1.67;;;0.63;;
57101;SDS011;42982;54.558;18.508;2022-09-21T04:06:22;2.47;;;0.98;;
57101;SDS011;42982;54.558;18.508;2022-09-21T04:07:30;3.72;;;0.80;;
57101;SDS011;42982;54.558;18.508;2022-09-21T04:08:36;3.13;;;0.88;;
57101;SDS011;42982;54.558;18.508;2022-09-21T04:09:41;1.77;;;0.80;;
57101;SDS011;42982;54.558;18.508;2022-09-21T04:10:43;1.55;;;0.73;;
57101;SDS011;42982;54.558;18.508;2022-09-21T04:11:46;6.05;;;0.80;;
57101;SDS011;42982;54.558;18.508;2022-09-21T04:12:51;2.35;;;0.82;;
57101;SDS011;42982;54.558;18.508;2022-09-21T04:14:01;3.42;;;1.00;;
57101;SDS011;42982;54.558;18.508;2022-09-21T04:15:11;4.07;;;0.98;;
57101;SDS011;42982;54.558;18.508;2022-09-21T04:16:19;2.13;;;0.80;;
57101;SDS011;42982;54.558;18.508;2022-09-21T04:17:21;1.52;;;0.52;;
57101;SDS011;42982;54.558;18.508;2022-09-21T04:18:27;2.40;;;0.60;;
57101;SDS011;42982;54.558;18.508;2022-09-21T04:19:29;3.67;;;0.68;;
57101;SDS011;42982;54.558;18.508;2022-09-21T04:20:34;1.52;;;0.55;;
57101;SDS011;42982;54.558;18.508;2022-09-21T04:21:42;1.83;;;0.50;;
57101;SDS011;42982;54.558;18.508;2022-09-21T04:22:45;1.67;;;0.50;;
57101;SDS011;42982;54.558;18.508;2022-09-21T04:23:47;2.33;;;0.60;;
57101;SDS011;42982;54.558;18.508;2022-09-21T04:24:57;1.50;;;0.68;;
57101;SDS011;42982;54.558;18.508;2022-09-21T04:26:06;2.47;;;0.50;;
57101;SDS011;42982;54.558;18.508;2022-09-21T04:27:21;2.15;;;0.70;;
57101;SDS011;42982;54.558;18.508;2022-09-21T04:28:31;4.38;;;0.70;;
57101;SDS011;42982;54.558;18.508;2022-09-21T04:29:33;2.72;;;0.75;;
57101;SDS011;42982;54.558;18.508;2022-09-21T04:30:36;2.53;;;0.70;;
57101;SDS011;42982;54.558;18.508;2022-09-21T04:31:40;7.25;;;0.90;;
57101;SDS011;42982;54.558;18.508;2022-09-21T04:32:45;0.95;;;0.52;;
57101;SDS011;42982;54.558;18.508;2022-09-21T04:33:49;4.40;;;0.60;;
57101;SDS011;42982;54.558;18.508;2022-09-21T04:34:52;3.88;;;0.60;;
57101;SDS011;42982;54.558;18.508;2022-09-21T04:35:59;2.33;;;0.70;;
57101;SDS011;42982;54.558;18.508;2022-09-21T04:37:04;1.00;;;0.50;;
57101;SDS011;42982;54.558;18.508;2022-09-21T04:38:08;7.03;;;0.80;;
57101;SDS011;42982;54.558;18.508;2022-09-21T04:39:15;2.35;;;0.63;;
57101;SDS011;42982;54.558;18.508;2022-09-21T04:40:20;2.53;;;0.70;;
57101;SDS011;42982;54.558;18.508;2022-09-21T04:41:23;2.22;;;0.70;;
57101;SDS011;42982;54.558;18.508;2022-09-21T04:42:28;4.28;;;0.80;;
57101;SDS011;42982;54.558;18.508;2022-09-21T04:43:40;1.20;;;0.40;;
57101;SDS011;42982;54.558;18.508;2022-09-21T04:44:45;1.75;;;0.70;;
57101;SDS011;42982;54.558;18.508;2022-09-21T04:45:50;3.80;;;0.60;;
57101;SDS011;42982;54.558;18.508;2022-09-21T04:46:57;1.33;;;0.70;;
57101;SDS011;42982;54.558;18.508;2022-09-21T04:48:04;2.25;;;0.85;;
57101;SDS011;42982;54.558;18.508;2022-09-21T04:49:06;5.10;;;0.70;;
57101;SDS011;42982;54.558;18.508;2022-09-21T04:50:08;2.38;;;0.80;;
57101;SDS011;42982;54.558;18.508;2022-09-21T04:51:12;6.80;;;0.82;;
57101;SDS011;42982;54.558;18.508;2022-09-21T04:52:17;4.32;;;0.95;;
57101;SDS011;42982;54.558;18.508;2022-09-21T04:53:20;5.57;;;0.70;;
57101;SDS011;42982;54.558;18.508;2022-09-21T04:54:26;1.50;;;0.80;;
57101;SDS011;42982;54.558;18.508;2022-09-21T04:55:31;1.90;;;0.85;;
57101;SDS011;42982;54.558;18.508;2022-09-21T04:56:40;4.00;;;0.90;;
57101;SDS011;42982;54.558;18.508;2022-09-21T04:57:44;3.20;;;1.02;;
57101;SDS011;42982;54.558;18.508;2022-09-21T04:58:46;1.50;;;0.60;;
57101;SDS011;42982;54.558;18.508;2022-09-21T04:59:49;3.72;;;0.70;;
57101;SDS011;42982;54.558;18.508;2022-09-21T05:00:51;3.83;;;0.80;;
57101;SDS011;42982;54.558;18.508;2022-09-21T05:01:55;1.83;;;1.00;;
57101;SDS011;42982;54.558;18.508;2022-09-21T05:03:06;4.05;;;0.98;;
57101;SDS011;42982;54.558;18.508;2022-09-21T05:04:08;2.83;;;0.95;;
57101;SDS011;42982;54.558;18.508;2022-09-21T05:05:13;1.10;;;0.68;;
57101;SDS011;42982;54.558;18.508;2022-09-21T05:06:18;1.17;;;0.65;;
57101;SDS011;42982;54.558;18.508;2022-09-21T05:07:20;2.65;;;0.50;;
57101;SDS011;42982;54.558;18.508;2022-09-21T05:08:24;2.03;;;0.60;;
57101;SDS011;42982;54.558;18.508;2022-09-21T05:09:46;3.63;;;0.80;;
57101;SDS011;42982;54.558;18.508;2022-09-21T05:11:03;2.65;;;0.68;;
57101;SDS011;42982;54.558;18.508;2022-09-21T05:12:11;2.65;;;0.77;;
57101;SDS011;42982;54.558;18.508;2022-09-21T05:13:12;0.98;;;0.60;;
57101;SDS011;42982;54.558;18.508;2022-09-21T05:14:15;2.13;;;1.02;;
57101;SDS011;42982;54.558;18.508;2022-09-21T05:15:21;3.58;;;0.68;;
57101;SDS011;42982;54.558;18.508;2022-09-21T05:16:28;4.30;;;0.80;;
57101;SDS011;42982;54.558;18.508;2022-09-21T05:17:31;1.95;;;0.98;;
57101;SDS011;42982;54.558;18.508;2022-09-21T05:18:33;2.10;;;0.68;;
57101;SDS011;42982;54.558;18.508;2022-09-21T05:19:39;2.38;;;0.70;;
57101;SDS011;42982;54.558;18.508;2022-09-21T05:20:43;0.50;;;0.40;;
57101;SDS011;42982;54.558;18.508;2022-09-21T05:21:48;5.90;;;0.90;;
57101;SDS011;42982;54.558;18.508;2022-09-21T05:22:50;1.08;;;0.70;;
57101;SDS011;42982;54.558;18.508;2022-09-21T05:23:52;1.83;;;0.52;;
57101;SDS011;42982;54.558;18.508;2022-09-21T05:24:57;2.47;;;0.80;;
57101;SDS011;42982;54.558;18.508;2022-09-21T05:26:00;3.17;;;0.70;;
57101;SDS011;42982;54.558;18.508;2022-09-21T05:27:02;1.10;;;0.60;;
57101;SDS011;42982;54.558;18.508;2022-09-21T05:28:06;5.45;;;0.70;;
57101;SDS011;42982;54.558;18.508;2022-09-21T05:29:10;1.70;;;0.60;;
57101;SDS011;42982;54.558;18.508;2022-09-21T05:30:17;4.93;;;0.90;;
57101;SDS011;42982;54.558;18.508;2022-09-21T05:32:47;2.03;;;0.73;;
57101;SDS011;42982;54.558;18.508;2022-09-21T05:35:32;5.68;;;1.08;;
57101;SDS011;42982;54.558;18.508;2022-09-21T05:36:40;3.83;;;1.45;;
57101;SDS011;42982;54.558;18.508;2022-09-21T05:38:11;6.50;;;1.50;;
57101;SDS011;42982;54.558;18.508;2022-09-21T05:39:19;4.50;;;1.45;;
57101;SDS011;42982;54.558;18.508;2022-09-21T05:40:22;6.03;;;1.60;;
57101;SDS011;42982;54.558;18.508;2022-09-21T05:41:25;4.75;;;1.77;;
57101;SDS011;42982;54.558;18.508;2022-09-21T05:42:29;7.80;;;1.75;;
57101;SDS011;42982;54.558;18.508;2022-09-21T05:43:33;3.40;;;1.80;;
57101;SDS011;42982;54.558;18.508;2022-09-21T05:44:37;6.00;;;1.88;;
57101;SDS011;42982;54.558;18.508;2022-09-21T05:45:42;4.80;;;1.50;;
57101;SDS011;42982;54.558;18.508;2022-09-21T05:53:12;6.57;;;1.60;;
57101;SDS011;42982;54.558;18.508;2022-09-21T05:59:45;3.60;;;1.25;;
57101;SDS011;42982;54.558;18.508;2022-09-21T06:00:53;2.25;;;1.30;;
57101;SDS011;42982;54.558;18.508;2022-09-21T06:02:25;3.42;;;1.10;;
57101;SDS011;42982;54.558;18.508;2022-09-21T06:03:28;3.63;;;1.45;;
57101;SDS011;42982;54.558;18.508;2022-09-21T06:04:33;4.40;;;1.30;;
57101;SDS011;42982;54.558;18.508;2022-09-21T06:06:15;3.25;;;1.13;;
57101;SDS011;42982;54.558;18.508;2022-09-21T06:07:18;4.38;;;1.30;;
57101;SDS011;42982;54.558;18.508;2022-09-21T06:08:44;1.85;;;1.08;;
57101;SDS011;42982;54.558;18.508;2022-09-21T06:10:06;2.45;;;1.20;;
57101;SDS011;42982;54.558;18.508;2022-09-21T06:11:49;3.05;;;1.33;;
57101;SDS011;42982;54.558;18.508;2022-09-21T06:12:53;3.25;;;1.40;;
57101;SDS011;42982;54.558;18.508;2022-09-21T06:14:36;4.80;;;1.25;;
57101;SDS011;42982;54.558;18.508;2022-09-21T06:16:01;4.53;;;1.23;;
57101;SDS011;42982;54.558;18.508;2022-09-21T06:17:06;5.85;;;1.30;;
57101;SDS011;42982;54.558;18.508;2022-09-21T06:18:11;2.75;;;1.00;;
57101;SDS011;42982;54.558;18.508;2022-09-21T06:19:39;3.28;;;1.05;;
57101;SDS011;42982;54.558;18.508;2022-09-21T06:20:44;3.97;;;1.50;;
57101;SDS011;42982;54.558;18.508;2022-09-21T06:21:48;3.28;;;1.27;;
57101;SDS011;42982;54.558;18.508;2022-09-21T06:23:29;3.13;;;1.52;;
57101;SDS011;42982;54.558;18.508;2022-09-21T06:25:13;2.88;;;1.10;;
57101;SDS011;42982;54.558;18.508;2022-09-21T06:26:59;2.50;;;1.40;;
57101;SDS011;42982;54.558;18.508;2022-09-21T06:28:46;3.45;;;1.30;;
57101;SDS011;42982;54.558;18.508;2022-09-21T06:29:48;2.58;;;1.20;;
57101;SDS011;42982;54.558;18.508;2022-09-21T06:30:54;4.57;;;1.30;;
57101;SDS011;42982;54.558;18.508;2022-09-21T06:32:16;1.98;;;1.10;;
57101;SDS011;42982;54.558;18.508;2022-09-21T06:34:02;2.25;;;0.95;;
57101;SDS011;42982;54.558;18.508;2022-09-21T06:35:05;2.08;;;1.13;;
57101;SDS011;42982;54.558;18.508;2022-09-21T06:36:14;3.97;;;1.20;;
57101;SDS011;42982;54.558;18.508;2022-09-21T06:37:19;2.50;;;1.30;;
57101;SDS011;42982;54.558;18.508;2022-09-21T06:38:23;4.93;;;1.17;;
57101;SDS011;42982;54.558;18.508;2022-09-21T06:41:37;2.22;;;1.20;;
57101;SDS011;42982;54.558;18.508;2022-09-21T06:43:23;2.15;;;1.10;;
57101;SDS011;42982;54.558;18.508;2022-09-21T06:45:03;2.13;;;1.20;;
57101;SDS011;42982;54.558;18.508;2022-09-21T06:46:44;2.10;;;0.95;;
57101;SDS011;42982;54.558;18.508;2022-09-21T06:47:52;4.05;;;1.15;;
57101;SDS011;42982;54.558;18.508;2022-09-21T06:48:53;2.17;;;1.30;;
57101;SDS011;42982;54.558;18.508;2022-09-21T06:50:35;2.55;;;1.00;;
57101;SDS011;42982;54.558;18.508;2022-09-21T06:52:06;2.35;;;0.90;;
57101;SDS011;42982;54.558;18.508;2022-09-21T06:53:12;3.13;;;1.13;;
57101;SDS011;42982;54.558;18.508;2022-09-21T06:54:53;1.65;;;0.85;;
57101;SDS011;42982;54.558;18.508;2022-09-21T06:56:35;0.85;;;0.70;;
57101;SDS011;42982;54.558;18.508;2022-09-21T06:57:37;1.48;;;0.85;;
57101;SDS011;42982;54.558;18.508;2022-09-21T06:58:44;1.27;;;0.75;;
57101;SDS011;42982;54.558;18.508;2022-09-21T07:00:25;3.88;;;1.00;;
57101;SDS011;42982;54.558;18.508;2022-09-21T07:02:10;9.50;;;1.13;;
57101;SDS011;42982;54.558;18.508;2022-09-21T07:03:35;1.10;;;0.90;;
57101;SDS011;42982;54.558;18.508;2022-09-21T07:04:41;3.22;;;1.02;;
57101;SDS011;42982;54.558;18.508;2022-09-21T07:06:22;3.42;;;0.98;;
57101;SDS011;42982;54.558;18.508;2022-09-21T07:08:03;1.55;;;1.00;;
57101;SDS011;42982;54.558;18.508;2022-09-21T07:09:27;3.63;;;1.48;;
57101;SDS011;42982;54.558;18.508;2022-09-21T07:10:32;2.05;;;1.40;;
57101;SDS011;42982;54.558;18.508;2022-09-21T07:11:35;3.30;;;1.17;;
57101;SDS011;42982;54.558;18.508;2022-09-21T07:12:41;1.65;;;1.20;;
57101;SDS011;42982;54.558;18.508;2022-09-21T07:13:48;1.73;;;1.05;;
57101;SDS011;42982;54.558;18.508;2022-09-21T07:14:53;2.40;;;1.35;;
57101;SDS011;42982;54.558;18.508;2022-09-21T07:16:01;2.55;;;1.40;;
57101;SDS011;42982;54.558;18.508;2022-09-21T07:17:07;3.70;;;1.40;;
57101;SDS011;42982;54.558;18.508;2022-09-21T07:18:12;4.93;;;1.50;;
57101;SDS011;42982;54.558;18.508;2022-09-21T07:19:14;5.47;;;1.42;;
57101;SDS011;42982;54.558;18.508;2022-09-21T07:20:19;3.58;;;1.45;;
57101;SDS011;42982;54.558;18.508;2022-09-21T07:21:21;5.95;;;1.70;;
57101;SDS011;42982;54.558;18.508;2022-09-21T07:22:29;2.42;;;1.35;;
57101;SDS011;42982;54.558;18.508;2022-09-21T07:23:32;1.30;;;0.90;;
57101;SDS011;42982;54.558;18.508;2022-09-21T07:24:40;1.25;;;0.95;;
57101;SDS011;42982;54.558;18.508;2022-09-21T07:25:47;2.85;;;1.02;;
57101;SDS011;42982;54.558;18.508;2022-09-21T07:26:50;2.63;;;0.90;;
57101;SDS011;42982;54.558;18.508;2022-09-21T07:27:58;2.55;;;0.95;;
57101;SDS011;42982;54.558;18.508;2022-09-21T07:29:04;2.25;;;0.93;;
57101;SDS011;42982;54.558;18.508;2022-09-21T07:30:12;1.05;;;0.70;;
57101;SDS011;42982;54.558;18.508;2022-09-21T07:31:16;5.10;;;0.90;;
57101;SDS011;42982;54.558;18.508;2022-09-21T07:32:26;2.97;;;0.90;;
57101;SDS011;42982;54.558;18.508;2022-09-21T07:33:36;1.75;;;0.73;;
57101;SDS011;42982;54.558;18.508;2022-09-21T07:34:38;1.65;;;0.80;;
57101;SDS011;42982;54.558;18.508;2022-09-21T07:35:49;3.65;;;0.90;;
57101;SDS011;42982;54.558;18.508;2022-09-21T07:37:00;1.27;;;0.63;;
57101;SDS011;42982;54.558;18.508;2022-09-21T07:38:04;0.65;;;0.52;;
57101;SDS011;42982;54.558;18.508;2022-09-21T07:39:13;1.60;;;0.80;;